sensor_id;sensor_type;location;lat;lon;timestamp;P1;durP1;ratioP1;P2;durP2;ratioP2
71878;SDS011;59755;43.834;4.364;2022-09-01T00:02:19;7.10;;;4.40;;
71878;SDS011;59755;43.834;4.364;2022-09-01T00:04:45;7.25;;;4.60;;
71878;SDS011;59755;43.834;4.364;2022-09-01T00:07:12;7.80;;;4.22;;
71878;SDS011;59755;43.834;4.364;2022-09-01T00:09:38;6.82;;;4.15;;
71878;SDS011;59755;43.834;4.364;2022-09-01T00:12:06;6.68;;;4.20;;
71878;SDS011;59755;43.834;4.364;2022-09-01T00:14:34;7.50;;;4.53;;
71878;SDS011;59755;43.834;4.364;2022-09-01T00:17:04;6.28;;;4.00;;
71878;SDS011;59755;43.834;4.364;2022-09-01T00:19:31;6.38;;;4.30;;
71878;SDS011;59755;43.834;4.364;2022-09-01T00:21:59;8.10;;;4.45;;
71878;SDS011;59755;43.834;4.364;2022-09-01T00:24:25;6.93;;;4.65;;
71878;SDS011;59755;43.834;4.364;2022-09-01T00:26:52;7.15;;;4.65;;
71878;SDS011;59755;43.834;4.364;2022-09-01T00:29:18;6.72;;;4.40;;
71878;SDS011;59755;43.834;4.364;2022-09-01T00:31:45;6.63;;;4.35;;
71878;SDS011;59755;43.834;4.364;2022-09-01T00:34:11;6.85;;;3.95;;
71878;SDS011;59755;43.834;4.364;2022-09-01T00:36:36;6.63;;;4.22;;
71878;SDS011;59755;43.834;4.364;2022-09-01T00:39:03;6.70;;;4.30;;
71878;SDS011;59755;43.834;4.364;2022-09-01T00:41:31;6.60;;;4.00;;
71878;SDS011;59755;43.834;4.364;2022-09-01T00:44:02;7.18;;;4.30;;
71878;SDS011;59755;43.834;4.364;2022-09-01T00:46:35;7.32;;;4.22;;
71878;SDS011;59755;43.834;4.364;2022-09-01T00:49:13;8.05;;;4.57;;
71878;SDS011;59755;43.834;4.364;2022-09-01T00:51:47;8.15;;;4.57;;
71878;SDS011;59755;43.834;4.364;2022-09-01T00:54:23;6.60;;;4.50;;
71878;SDS011;59755;43.834;4.364;2022-09-01T00:56:53;6.10;;;3.97;;
71878;SDS011;59755;43.834;4.364;2022-09-01T00:59:20;6.60;;;4.38;;
71878;SDS011;59755;43.834;4.364;2022-09-01T01:01:47;6.88;;;3.92;;
71878;SDS011;59755;43.834;4.364;2022-09-01T01:04:14;7.03;;;4.22;;
71878;SDS011;59755;43.834;4.364;2022-09-01T01:06:43;7.88;;;4.90;;
71878;SDS011;59755;43.834;4.364;2022-09-01T01:09:14;7.30;;;4.28;;
71878;SDS011;59755;43.834;4.364;2022-09-01T01:11:45;8.35;;;4.80;;
71878;SDS011;59755;43.834;4.364;2022-09-01T01:14:13;7.45;;;4.68;;
71878;SDS011;59755;43.834;4.364;2022-09-01T01:16:47;6.65;;;4.53;;
71878;SDS011;59755;43.834;4.364;2022-09-01T01:22:16;8.30;;;4.55;;
71878;SDS011;59755;43.834;4.364;2022-09-01T01:25:08;7.00;;;4.70;;
71878;SDS011;59755;43.834;4.364;2022-09-01T01:27:36;9.77;;;5.10;;
71878;SDS011;59755;43.834;4.364;2022-09-01T01:30:04;7.72;;;4.60;;
71878;SDS011;59755;43.834;4.364;2022-09-01T01:32:34;6.90;;;4.38;;
71878;SDS011;59755;43.834;4.364;2022-09-01T01:35:00;6.40;;;4.45;;
71878;SDS011;59755;43.834;4.364;2022-09-01T01:37:32;6.43;;;4.40;;
71878;SDS011;59755;43.834;4.364;2022-09-01T01:39:59;6.97;;;3.92;;
71878;SDS011;59755;43.834;4.364;2022-09-01T01:42:26;8.13;;;4.68;;
71878;SDS011;59755;43.834;4.364;2022-09-01T01:44:53;7.45;;;4.60;;
71878;SDS011;59755;43.834;4.364;2022-09-01T01:47:19;7.05;;;4.43;;
71878;SDS011;59755;43.834;4.364;2022-09-01T01:49:45;9.23;;;4.38;;
71878;SDS011;59755;43.834;4.364;2022-09-01T01:52:12;9.43;;;5.07;;
71878;SDS011;59755;43.834;4.364;2022-09-01T01:54:42;7.18;;;4.45;;
71878;SDS011;59755;43.834;4.364;2022-09-01T01:57:10;9.30;;;4.32;;
71878;SDS011;59755;43.834;4.364;2022-09-01T01:59:40;9.45;;;4.18;;
71878;SDS011;59755;43.834;4.364;2022-09-01T02:02:05;7.13;;;4.50;;
71878;SDS011;59755;43.834;4.364;2022-09-01T02:04:32;7.10;;;4.30;;
71878;SDS011;59755;43.834;4.364;2022-09-01T02:06:58;7.80;;;4.25;;
71878;SDS011;59755;43.834;4.364;2022-09-01T02:09:24;6.88;;;4.60;;
71878;SDS011;59755;43.834;4.364;2022-09-01T02:11:50;6.75;;;4.50;;
71878;SDS011;59755;43.834;4.364;2022-09-01T02:14:21;7.80;;;4.43;;
71878;SDS011;59755;43.834;4.364;2022-09-01T02:16:47;8.95;;;4.47;;
71878;SDS011;59755;43.834;4.364;2022-09-01T02:19:13;6.82;;;4.35;;
71878;SDS011;59755;43.834;4.364;2022-09-01T02:21:43;7.38;;;4.15;;
71878;SDS011;59755;43.834;4.364;2022-09-01T02:24:13;6.75;;;4.57;;
71878;SDS011;59755;43.834;4.364;2022-09-01T02:26:41;7.45;;;4.47;;
71878;SDS011;59755;43.834;4.364;2022-09-01T02:29:10;7.05;;;4.80;;
71878;SDS011;59755;43.834;4.364;2022-09-01T02:31:43;8.40;;;4.93;;
71878;SDS011;59755;43.834;4.364;2022-09-01T02:34:10;8.07;;;4.70;;
71878;SDS011;59755;43.834;4.364;2022-09-01T02:36:47;6.68;;;3.97;;
71878;SDS011;59755;43.834;4.364;2022-09-01T02:39:18;7.55;;;4.70;;
71878;SDS011;59755;43.834;4.364;2022-09-01T02:41:47;7.13;;;4.53;;
71878;SDS011;59755;43.834;4.364;2022-09-01T02:44:14;7.45;;;4.65;;
71878;SDS011;59755;43.834;4.364;2022-09-01T02:46:41;6.45;;;3.92;;
71878;SDS011;59755;43.834;4.364;2022-09-01T02:49:09;8.30;;;4.70;;
71878;SDS011;59755;43.834;4.364;2022-09-01T02:51:39;6.97;;;4.33;;
71878;SDS011;59755;43.834;4.364;2022-09-01T02:54:10;7.35;;;4.53;;
71878;SDS011;59755;43.834;4.364;2022-09-01T02:56:40;6.57;;;4.53;;
71878;SDS011;59755;43.834;4.364;2022-09-01T02:59:06;6.50;;;4.40;;
71878;SDS011;59755;43.834;4.364;2022-09-01T03:01:37;6.77;;;4.30;;
71878;SDS011;59755;43.834;4.364;2022-09-01T03:04:03;7.75;;;4.22;;
71878;SDS011;59755;43.834;4.364;2022-09-01T03:06:32;9.00;;;4.68;;
71878;SDS011;59755;43.834;4.364;2022-09-01T03:08:58;6.78;;;4.10;;
71878;SDS011;59755;43.834;4.364;2022-09-01T03:11:25;7.93;;;4.65;;
71878;SDS011;59755;43.834;4.364;2022-09-01T03:13:53;7.95;;;4.80;;
71878;SDS011;59755;43.834;4.364;2022-09-01T03:16:19;9.32;;;4.85;;
71878;SDS011;59755;43.834;4.364;2022-09-01T03:18:49;7.22;;;4.60;;
71878;SDS011;59755;43.834;4.364;2022-09-01T03:21:15;7.18;;;4.60;;
71878;SDS011;59755;43.834;4.364;2022-09-01T03:23:44;7.28;;;4.60;;
71878;SDS011;59755;43.834;4.364;2022-09-01T03:26:11;7.10;;;4.63;;
71878;SDS011;59755;43.834;4.364;2022-09-01T03:28:37;7.30;;;4.43;;
71878;SDS011;59755;43.834;4.364;2022-09-01T03:31:03;6.68;;;4.60;;
71878;SDS011;59755;43.834;4.364;2022-09-01T03:33:29;9.10;;;4.90;;
71878;SDS011;59755;43.834;4.364;2022-09-01T03:35:56;8.23;;;4.30;;
71878;SDS011;59755;43.834;4.364;2022-09-01T03:38:23;7.53;;;4.85;;
71878;SDS011;59755;43.834;4.364;2022-09-01T03:40:53;7.15;;;4.22;;
71878;SDS011;59755;43.834;4.364;2022-09-01T03:43:24;7.32;;;4.28;;
71878;SDS011;59755;43.834;4.364;2022-09-01T03:45:52;8.70;;;4.45;;
71878;SDS011;59755;43.834;4.364;2022-09-01T03:48:20;7.55;;;4.50;;
71878;SDS011;59755;43.834;4.364;2022-09-01T03:50:47;10.05;;;4.70;;
71878;SDS011;59755;43.834;4.364;2022-09-01T03:53:15;7.03;;;4.22;;
71878;SDS011;59755;43.834;4.364;2022-09-01T03:55:44;6.90;;;4.28;;
71878;SDS011;59755;43.834;4.364;2022-09-01T03:58:12;8.82;;;4.65;;
71878;SDS011;59755;43.834;4.364;2022-09-01T04:00:43;8.10;;;4.60;;
71878;SDS011;59755;43.834;4.364;2022-09-01T04:03:12;8.80;;;4.70;;
71878;SDS011;59755;43.834;4.364;2022-09-01T04:05:42;8.23;;;4.45;;
71878;SDS011;59755;43.834;4.364;2022-09-01T04:08:09;7.22;;;4.65;;
71878;SDS011;59755;43.834;4.364;2022-09-01T04:10:41;7.22;;;4.57;;
71878;SDS011;59755;43.834;4.364;2022-09-01T04:13:11;8.05;;;4.60;;
71878;SDS011;59755;43.834;4.364;2022-09-01T04:15:38;7.40;;;4.60;;
71878;SDS011;59755;43.834;4.364;2022-09-01T04:18:04;7.47;;;4.10;;
71878;SDS011;59755;43.834;4.364;2022-09-01T04:20:44;6.95;;;4.60;;
71878;SDS011;59755;43.834;4.364;2022-09-01T04:23:18;7.82;;;4.85;;
71878;SDS011;59755;43.834;4.364;2022-09-01T04:26:01;9.27;;;4.40;;
71878;SDS011;59755;43.834;4.364;2022-09-01T04:31:04;10.60;;;5.60;;
71878;SDS011;59755;43.834;4.364;2022-09-01T04:33:33;9.85;;;5.50;;
71878;SDS011;59755;43.834;4.364;2022-09-01T04:36:13;9.32;;;5.07;;
71878;SDS011;59755;43.834;4.364;2022-09-01T04:38:43;6.97;;;4.47;;
71878;SDS011;59755;43.834;4.364;2022-09-01T04:41:13;7.80;;;4.97;;
71878;SDS011;59755;43.834;4.364;2022-09-01T04:43:43;7.47;;;4.85;;
71878;SDS011;59755;43.834;4.364;2022-09-01T04:46:12;8.45;;;4.43;;
71878;SDS011;59755;43.834;4.364;2022-09-01T04:48:39;7.95;;;4.88;;
71878;SDS011;59755;43.834;4.364;2022-09-01T04:51:07;8.45;;;4.97;;
71878;SDS011;59755;43.834;4.364;2022-09-01T04:53:35;9.35;;;5.05;;
71878;SDS011;59755;43.834;4.364;2022-09-01T04:56:02;8.00;;;4.60;;
71878;SDS011;59755;43.834;4.364;2022-09-01T04:58:34;7.90;;;4.65;;
71878;SDS011;59755;43.834;4.364;2022-09-01T05:01:01;7.40;;;4.45;;
71878;SDS011;59755;43.834;4.364;2022-09-01T05:03:37;7.97;;;4.88;;
71878;SDS011;59755;43.834;4.364;2022-09-01T05:06:03;8.45;;;4.85;;
71878;SDS011;59755;43.834;4.364;2022-09-01T05:08:29;8.32;;;5.07;;
71878;SDS011;59755;43.834;4.364;2022-09-01T05:11:02;8.63;;;4.88;;
71878;SDS011;59755;43.834;4.364;2022-09-01T05:13:31;8.07;;;5.00;;
71878;SDS011;59755;43.834;4.364;2022-09-01T05:16:02;8.32;;;4.78;;
71878;SDS011;59755;43.834;4.364;2022-09-01T05:18:30;7.90;;;4.57;;
71878;SDS011;59755;43.834;4.364;2022-09-01T05:20:56;7.28;;;4.45;;
71878;SDS011;59755;43.834;4.364;2022-09-01T05:23:22;8.57;;;4.80;;
71878;SDS011;59755;43.834;4.364;2022-09-01T05:25:50;9.63;;;4.97;;
71878;SDS011;59755;43.834;4.364;2022-09-01T05:28:19;7.38;;;4.78;;
71878;SDS011;59755;43.834;4.364;2022-09-01T05:30:49;8.77;;;5.30;;
71878;SDS011;59755;43.834;4.364;2022-09-01T05:33:18;7.80;;;4.90;;
71878;SDS011;59755;43.834;4.364;2022-09-01T05:35:55;8.18;;;4.80;;
71878;SDS011;59755;43.834;4.364;2022-09-01T05:38:26;7.13;;;4.43;;
71878;SDS011;59755;43.834;4.364;2022-09-01T05:40:56;7.25;;;4.65;;
71878;SDS011;59755;43.834;4.364;2022-09-01T05:43:26;9.35;;;4.90;;
71878;SDS011;59755;43.834;4.364;2022-09-01T05:45:53;8.25;;;4.55;;
71878;SDS011;59755;43.834;4.364;2022-09-01T05:48:19;7.20;;;4.75;;
71878;SDS011;59755;43.834;4.364;2022-09-01T05:50:47;6.97;;;4.25;;
71878;SDS011;59755;43.834;4.364;2022-09-01T05:53:14;7.15;;;4.38;;
71878;SDS011;59755;43.834;4.364;2022-09-01T05:55:44;8.38;;;4.50;;
71878;SDS011;59755;43.834;4.364;2022-09-01T05:58:13;7.82;;;4.60;;
71878;SDS011;59755;43.834;4.364;2022-09-01T06:00:44;8.25;;;4.90;;
71878;SDS011;59755;43.834;4.364;2022-09-01T06:03:14;10.30;;;5.25;;
71878;SDS011;59755;43.834;4.364;2022-09-01T06:05:42;11.63;;;4.55;;
71878;SDS011;59755;43.834;4.364;2022-09-01T06:08:10;9.38;;;5.00;;
71878;SDS011;59755;43.834;4.364;2022-09-01T06:10:38;10.38;;;5.68;;
71878;SDS011;59755;43.834;4.364;2022-09-01T06:13:06;8.68;;;4.50;;
71878;SDS011;59755;43.834;4.364;2022-09-01T06:15:33;8.57;;;5.03;;
71878;SDS011;59755;43.834;4.364;2022-09-01T06:18:03;10.38;;;5.40;;
71878;SDS011;59755;43.834;4.364;2022-09-01T06:20:30;7.30;;;4.78;;
71878;SDS011;59755;43.834;4.364;2022-09-01T06:22:56;8.80;;;4.90;;
71878;SDS011;59755;43.834;4.364;2022-09-01T06:25:22;7.22;;;5.10;;
71878;SDS011;59755;43.834;4.364;2022-09-01T06:27:50;7.65;;;4.85;;
71878;SDS011;59755;43.834;4.364;2022-09-01T06:30:16;9.13;;;5.05;;
71878;SDS011;59755;43.834;4.364;2022-09-01T06:32:49;7.85;;;5.00;;
71878;SDS011;59755;43.834;4.364;2022-09-01T06:35:16;8.60;;;4.63;;
71878;SDS011;59755;43.834;4.364;2022-09-01T06:37:42;10.23;;;5.28;;
71878;SDS011;59755;43.834;4.364;2022-09-01T06:40:11;7.25;;;4.32;;
71878;SDS011;59755;43.834;4.364;2022-09-01T06:42:48;8.15;;;4.85;;
71878;SDS011;59755;43.834;4.364;2022-09-01T06:45:17;9.55;;;4.80;;
71878;SDS011;59755;43.834;4.364;2022-09-01T06:47:44;7.97;;;4.60;;
71878;SDS011;59755;43.834;4.364;2022-09-01T06:50:12;9.90;;;5.18;;
71878;SDS011;59755;43.834;4.364;2022-09-01T06:52:42;9.68;;;4.82;;
71878;SDS011;59755;43.834;4.364;2022-09-01T06:55:12;7.65;;;4.85;;
71878;SDS011;59755;43.834;4.364;2022-09-01T06:57:39;8.25;;;4.47;;
71878;SDS011;59755;43.834;4.364;2022-09-01T07:00:10;7.60;;;4.93;;
71878;SDS011;59755;43.834;4.364;2022-09-01T07:02:44;8.43;;;4.90;;
71878;SDS011;59755;43.834;4.364;2022-09-01T07:05:12;7.70;;;4.40;;
71878;SDS011;59755;43.834;4.364;2022-09-01T07:07:41;8.25;;;4.47;;
71878;SDS011;59755;43.834;4.364;2022-09-01T07:10:10;7.70;;;4.50;;
71878;SDS011;59755;43.834;4.364;2022-09-01T07:12:38;7.07;;;4.50;;
71878;SDS011;59755;43.834;4.364;2022-09-01T07:17:37;7.15;;;4.70;;
71878;SDS011;59755;43.834;4.364;2022-09-01T07:20:03;8.82;;;4.28;;
71878;SDS011;59755;43.834;4.364;2022-09-01T07:22:29;8.88;;;4.18;;
71878;SDS011;59755;43.834;4.364;2022-09-01T07:24:55;8.98;;;4.60;;
71878;SDS011;59755;43.834;4.364;2022-09-01T07:27:21;7.47;;;4.53;;
71878;SDS011;59755;43.834;4.364;2022-09-01T07:29:50;9.00;;;4.70;;
71878;SDS011;59755;43.834;4.364;2022-09-01T07:32:16;13.10;;;5.15;;
71878;SDS011;59755;43.834;4.364;2022-09-01T07:34:41;8.82;;;4.78;;
71878;SDS011;59755;43.834;4.364;2022-09-01T07:37:09;9.18;;;4.63;;
71878;SDS011;59755;43.834;4.364;2022-09-01T07:39:35;9.75;;;4.95;;
71878;SDS011;59755;43.834;4.364;2022-09-01T07:42:01;8.85;;;4.60;;
71878;SDS011;59755;43.834;4.364;2022-09-01T07:44:35;7.22;;;4.63;;
71878;SDS011;59755;43.834;4.364;2022-09-01T07:47:03;9.98;;;4.53;;
71878;SDS011;59755;43.834;4.364;2022-09-01T07:49:33;10.03;;;4.87;;
71878;SDS011;59755;43.834;4.364;2022-09-01T07:52:01;10.20;;;4.72;;
71878;SDS011;59755;43.834;4.364;2022-09-01T07:54:31;9.68;;;4.53;;
71878;SDS011;59755;43.834;4.364;2022-09-01T07:56:58;8.75;;;4.80;;
71878;SDS011;59755;43.834;4.364;2022-09-01T07:59:25;10.52;;;4.50;;
71878;SDS011;59755;43.834;4.364;2022-09-01T08:01:53;14.38;;;5.20;;
71878;SDS011;59755;43.834;4.364;2022-09-01T08:04:20;7.30;;;4.50;;
71878;SDS011;59755;43.834;4.364;2022-09-01T08:06:47;8.20;;;4.20;;
71878;SDS011;59755;43.834;4.364;2022-09-01T08:09:12;8.60;;;4.35;;
71878;SDS011;59755;43.834;4.364;2022-09-01T08:11:38;9.05;;;4.63;;
71878;SDS011;59755;43.834;4.364;2022-09-01T08:14:05;25.48;;;6.20;;
71878;SDS011;59755;43.834;4.364;2022-09-01T08:16:31;8.68;;;4.13;;
71878;SDS011;59755;43.834;4.364;2022-09-01T08:18:57;7.25;;;3.92;;
71878;SDS011;59755;43.834;4.364;2022-09-01T08:21:24;8.18;;;4.20;;
71878;SDS011;59755;43.834;4.364;2022-09-01T08:23:51;8.10;;;4.43;;
71878;SDS011;59755;43.834;4.364;2022-09-01T08:26:19;6.32;;;3.58;;
71878;SDS011;59755;43.834;4.364;2022-09-01T08:28:47;7.60;;;4.15;;
71878;SDS011;59755;43.834;4.364;2022-09-01T08:31:14;5.93;;;3.80;;
71878;SDS011;59755;43.834;4.364;2022-09-01T08:33:43;7.57;;;3.78;;
71878;SDS011;59755;43.834;4.364;2022-09-01T08:36:11;6.95;;;3.85;;
71878;SDS011;59755;43.834;4.364;2022-09-01T08:38:38;6.85;;;3.90;;
71878;SDS011;59755;43.834;4.364;2022-09-01T08:41:05;7.78;;;4.45;;
71878;SDS011;59755;43.834;4.364;2022-09-01T08:46:38;6.45;;;3.85;;
71878;SDS011;59755;43.834;4.364;2022-09-01T08:49:09;6.60;;;3.92;;
71878;SDS011;59755;43.834;4.364;2022-09-01T08:51:42;6.85;;;4.20;;
71878;SDS011;59755;43.834;4.364;2022-09-01T08:54:22;7.90;;;3.97;;
71878;SDS011;59755;43.834;4.364;2022-09-01T08:56:53;8.00;;;4.03;;
71878;SDS011;59755;43.834;4.364;2022-09-01T08:59:25;8.40;;;4.18;;
71878;SDS011;59755;43.834;4.364;2022-09-01T09:05:09;8.73;;;4.63;;
71878;SDS011;59755;43.834;4.364;2022-09-01T09:10:19;8.73;;;4.13;;
71878;SDS011;59755;43.834;4.364;2022-09-01T09:13:10;7.90;;;3.97;;
71878;SDS011;59755;43.834;4.364;2022-09-01T09:15:50;5.82;;;3.42;;
71878;SDS011;59755;43.834;4.364;2022-09-01T09:18:26;6.75;;;4.00;;
71878;SDS011;59755;43.834;4.364;2022-09-01T09:26:14;9.27;;;3.65;;
71878;SDS011;59755;43.834;4.364;2022-09-01T09:28:44;12.43;;;4.33;;
71878;SDS011;59755;43.834;4.364;2022-09-01T09:31:34;8.27;;;3.97;;
71878;SDS011;59755;43.834;4.364;2022-09-01T09:34:14;9.35;;;4.30;;
71878;SDS011;59755;43.834;4.364;2022-09-01T09:37:01;6.75;;;3.90;;
71878;SDS011;59755;43.834;4.364;2022-09-01T09:39:40;7.60;;;3.90;;
71878;SDS011;59755;43.834;4.364;2022-09-01T09:42:07;8.02;;;3.67;;
71878;SDS011;59755;43.834;4.364;2022-09-01T09:44:47;6.80;;;3.45;;
71878;SDS011;59755;43.834;4.364;2022-09-01T09:47:37;7.60;;;3.47;;
71878;SDS011;59755;43.834;4.364;2022-09-01T09:50:22;7.43;;;3.80;;
71878;SDS011;59755;43.834;4.364;2022-09-01T09:52:48;7.47;;;3.90;;
71878;SDS011;59755;43.834;4.364;2022-09-01T09:57:49;7.28;;;3.78;;
71878;SDS011;59755;43.834;4.364;2022-09-01T10:00:20;6.55;;;3.95;;
71878;SDS011;59755;43.834;4.364;2022-09-01T10:03:01;6.85;;;4.05;;
71878;SDS011;59755;43.834;4.364;2022-09-01T10:05:39;6.60;;;3.65;;
71878;SDS011;59755;43.834;4.364;2022-09-01T10:10:52;7.75;;;3.50;;
71878;SDS011;59755;43.834;4.364;2022-09-01T10:13:19;6.78;;;3.53;;
71878;SDS011;59755;43.834;4.364;2022-09-01T10:15:53;8.88;;;3.60;;
71878;SDS011;59755;43.834;4.364;2022-09-01T10:18:22;5.93;;;3.45;;
71878;SDS011;59755;43.834;4.364;2022-09-01T10:21:02;6.25;;;3.22;;
71878;SDS011;59755;43.834;4.364;2022-09-01T10:23:36;6.88;;;3.38;;
71878;SDS011;59755;43.834;4.364;2022-09-01T10:26:06;6.25;;;3.60;;
71878;SDS011;59755;43.834;4.364;2022-09-01T10:28:38;7.30;;;3.67;;
71878;SDS011;59755;43.834;4.364;2022-09-01T10:31:15;6.07;;;3.55;;
71878;SDS011;59755;43.834;4.364;2022-09-01T10:33:41;6.80;;;3.42;;
71878;SDS011;59755;43.834;4.364;2022-09-01T10:36:08;6.47;;;3.28;;
71878;SDS011;59755;43.834;4.364;2022-09-01T10:38:34;6.22;;;3.72;;
71878;SDS011;59755;43.834;4.364;2022-09-01T10:41:00;6.40;;;3.28;;
71878;SDS011;59755;43.834;4.364;2022-09-01T10:43:36;6.95;;;3.78;;
71878;SDS011;59755;43.834;4.364;2022-09-01T10:53:42;5.85;;;3.20;;
71878;SDS011;59755;43.834;4.364;2022-09-01T11:01:43;5.97;;;3.33;;
71878;SDS011;59755;43.834;4.364;2022-09-01T11:04:04;6.38;;;3.40;;
71878;SDS011;59755;43.834;4.364;2022-09-01T11:09:42;5.97;;;3.40;;
71878;SDS011;59755;43.834;4.364;2022-09-01T11:14:54;7.85;;;3.17;;
71878;SDS011;59755;43.834;4.364;2022-09-01T11:17:37;7.30;;;3.13;;
71878;SDS011;59755;43.834;4.364;2022-09-01T11:20:22;7.47;;;3.13;;
71878;SDS011;59755;43.834;4.364;2022-09-01T11:23:04;7.18;;;2.85;;
71878;SDS011;59755;43.834;4.364;2022-09-01T11:25:42;5.35;;;3.20;;
71878;SDS011;59755;43.834;4.364;2022-09-01T11:28:34;5.65;;;3.20;;
71878;SDS011;59755;43.834;4.364;2022-09-01T11:36:33;5.30;;;3.17;;
71878;SDS011;59755;43.834;4.364;2022-09-01T11:44:22;5.00;;;2.90;;
71878;SDS011;59755;43.834;4.364;2022-09-01T11:47:00;5.93;;;2.95;;
71878;SDS011;59755;43.834;4.364;2022-09-01T11:49:30;5.60;;;3.30;;
71878;SDS011;59755;43.834;4.364;2022-09-01T11:52:02;6.03;;;3.13;;
71878;SDS011;59755;43.834;4.364;2022-09-01T11:54:35;7.60;;;3.40;;
71878;SDS011;59755;43.834;4.364;2022-09-01T11:57:16;4.97;;;2.95;;
71878;SDS011;59755;43.834;4.364;2022-09-01T11:59:45;6.93;;;3.05;;
71878;SDS011;59755;43.834;4.364;2022-09-01T12:02:22;7.32;;;3.50;;
71878;SDS011;59755;43.834;4.364;2022-09-01T12:04:51;6.07;;;3.50;;
71878;SDS011;59755;43.834;4.364;2022-09-01T12:10:41;6.03;;;3.38;;
71878;SDS011;59755;43.834;4.364;2022-09-01T12:13:05;5.30;;;2.90;;
71878;SDS011;59755;43.834;4.364;2022-09-01T12:15:33;6.82;;;3.65;;
71878;SDS011;59755;43.834;4.364;2022-09-01T12:18:17;5.57;;;3.40;;
71878;SDS011;59755;43.834;4.364;2022-09-01T12:20:47;6.00;;;3.28;;
71878;SDS011;59755;43.834;4.364;2022-09-01T12:26:05;6.82;;;3.22;;
71878;SDS011;59755;43.834;4.364;2022-09-01T12:28:34;7.43;;;3.58;;
71878;SDS011;59755;43.834;4.364;2022-09-01T12:31:04;8.45;;;3.50;;
71878;SDS011;59755;43.834;4.364;2022-09-01T12:33:32;7.78;;;3.45;;
71878;SDS011;59755;43.834;4.364;2022-09-01T12:43:50;5.53;;;2.75;;
71878;SDS011;59755;43.834;4.364;2022-09-01T12:49:18;5.22;;;2.80;;
71878;SDS011;59755;43.834;4.364;2022-09-01T12:51:49;6.35;;;3.15;;
71878;SDS011;59755;43.834;4.364;2022-09-01T12:54:30;5.55;;;2.97;;
71878;SDS011;59755;43.834;4.364;2022-09-01T12:56:56;5.43;;;2.85;;
71878;SDS011;59755;43.834;4.364;2022-09-01T12:59:23;6.03;;;2.85;;
71878;SDS011;59755;43.834;4.364;2022-09-01T13:01:50;5.47;;;2.50;;
71878;SDS011;59755;43.834;4.364;2022-09-01T13:06:50;4.95;;;2.92;;
71878;SDS011;59755;43.834;4.364;2022-09-01T13:09:17;4.60;;;2.50;;
71878;SDS011;59755;43.834;4.364;2022-09-01T13:11:43;5.57;;;2.60;;
71878;SDS011;59755;43.834;4.364;2022-09-01T13:16:40;6.20;;;2.72;;
71878;SDS011;59755;43.834;4.364;2022-09-01T13:19:06;5.78;;;2.78;;
71878;SDS011;59755;43.834;4.364;2022-09-01T13:21:33;5.70;;;2.90;;
71878;SDS011;59755;43.834;4.364;2022-09-01T13:24:00;6.38;;;2.83;;
71878;SDS011;59755;43.834;4.364;2022-09-01T13:26:29;5.63;;;3.10;;
71878;SDS011;59755;43.834;4.364;2022-09-01T13:28:55;6.63;;;2.92;;
71878;SDS011;59755;43.834;4.364;2022-09-01T13:31:22;6.18;;;2.90;;
71878;SDS011;59755;43.834;4.364;2022-09-01T13:33:47;5.30;;;2.75;;
71878;SDS011;59755;43.834;4.364;2022-09-01T13:36:13;5.90;;;2.90;;
71878;SDS011;59755;43.834;4.364;2022-09-01T13:38:39;5.57;;;2.60;;
71878;SDS011;59755;43.834;4.364;2022-09-01T13:41:05;5.45;;;2.78;;
71878;SDS011;59755;43.834;4.364;2022-09-01T13:43:32;5.57;;;2.85;;
71878;SDS011;59755;43.834;4.364;2022-09-01T13:45:58;4.80;;;3.00;;
71878;SDS011;59755;43.834;4.364;2022-09-01T13:48:24;5.03;;;2.60;;
71878;SDS011;59755;43.834;4.364;2022-09-01T13:50:52;6.40;;;2.90;;
71878;SDS011;59755;43.834;4.364;2022-09-01T13:53:19;8.13;;;3.20;;
71878;SDS011;59755;43.834;4.364;2022-09-01T13:55:45;5.35;;;3.00;;
71878;SDS011;59755;43.834;4.364;2022-09-01T13:58:11;6.07;;;2.90;;
71878;SDS011;59755;43.834;4.364;2022-09-01T14:00:39;7.90;;;2.90;;
71878;SDS011;59755;43.834;4.364;2022-09-01T14:03:08;6.80;;;3.10;;
71878;SDS011;59755;43.834;4.364;2022-09-01T14:05:40;6.00;;;2.78;;
71878;SDS011;59755;43.834;4.364;2022-09-01T14:08:07;5.25;;;2.67;;
71878;SDS011;59755;43.834;4.364;2022-09-01T14:10:40;5.80;;;2.90;;
71878;SDS011;59755;43.834;4.364;2022-09-01T14:13:08;6.88;;;3.10;;
71878;SDS011;59755;43.834;4.364;2022-09-01T14:15:34;5.72;;;3.08;;
71878;SDS011;59755;43.834;4.364;2022-09-01T14:18:00;6.82;;;2.92;;
71878;SDS011;59755;43.834;4.364;2022-09-01T14:20:30;6.15;;;3.17;;
71878;SDS011;59755;43.834;4.364;2022-09-01T14:23:04;5.93;;;2.85;;
71878;SDS011;59755;43.834;4.364;2022-09-01T14:25:31;6.00;;;2.97;;
71878;SDS011;59755;43.834;4.364;2022-09-01T14:27:58;4.95;;;2.53;;
71878;SDS011;59755;43.834;4.364;2022-09-01T14:30:26;5.20;;;3.00;;
71878;SDS011;59755;43.834;4.364;2022-09-01T14:32:53;5.68;;;3.00;;
71878;SDS011;59755;43.834;4.364;2022-09-01T14:35:20;6.05;;;2.70;;
71878;SDS011;59755;43.834;4.364;2022-09-01T14:37:50;5.43;;;2.78;;
71878;SDS011;59755;43.834;4.364;2022-09-01T14:40:18;5.95;;;3.10;;
71878;SDS011;59755;43.834;4.364;2022-09-01T14:42:46;5.65;;;3.00;;
71878;SDS011;59755;43.834;4.364;2022-09-01T14:45:14;6.68;;;3.15;;
71878;SDS011;59755;43.834;4.364;2022-09-01T14:47:43;7.13;;;3.10;;
71878;SDS011;59755;43.834;4.364;2022-09-01T14:50:10;5.13;;;2.78;;
71878;SDS011;59755;43.834;4.364;2022-09-01T14:52:36;5.57;;;3.20;;
71878;SDS011;59755;43.834;4.364;2022-09-01T14:55:03;6.35;;;2.90;;
71878;SDS011;59755;43.834;4.364;2022-09-01T14:57:29;6.03;;;2.83;;
71878;SDS011;59755;43.834;4.364;2022-09-01T14:59:56;6.45;;;3.08;;
71878;SDS011;59755;43.834;4.364;2022-09-01T15:02:22;5.43;;;3.00;;
71878;SDS011;59755;43.834;4.364;2022-09-01T15:04:49;5.90;;;2.88;;
71878;SDS011;59755;43.834;4.364;2022-09-01T15:07:15;6.22;;;3.03;;
71878;SDS011;59755;43.834;4.364;2022-09-01T15:09:41;5.35;;;3.00;;
71878;SDS011;59755;43.834;4.364;2022-09-01T15:12:07;6.53;;;3.47;;
71878;SDS011;59755;43.834;4.364;2022-09-01T15:14:33;5.72;;;3.20;;
71878;SDS011;59755;43.834;4.364;2022-09-01T15:16:59;6.80;;;3.20;;
71878;SDS011;59755;43.834;4.364;2022-09-01T15:19:25;6.28;;;2.92;;
71878;SDS011;59755;43.834;4.364;2022-09-01T15:21:51;5.20;;;3.00;;
71878;SDS011;59755;43.834;4.364;2022-09-01T15:24:17;7.22;;;3.38;;
71878;SDS011;59755;43.834;4.364;2022-09-01T15:26:43;5.32;;;3.30;;
71878;SDS011;59755;43.834;4.364;2022-09-01T15:29:10;5.45;;;3.00;;
71878;SDS011;59755;43.834;4.364;2022-09-01T15:31:39;5.80;;;2.97;;
71878;SDS011;59755;43.834;4.364;2022-09-01T15:34:06;5.72;;;3.40;;
71878;SDS011;59755;43.834;4.364;2022-09-01T15:36:36;7.72;;;3.45;;
71878;SDS011;59755;43.834;4.364;2022-09-01T15:39:06;6.60;;;3.30;;
71878;SDS011;59755;43.834;4.364;2022-09-01T15:41:33;5.90;;;3.33;;
71878;SDS011;59755;43.834;4.364;2022-09-01T15:44:01;6.93;;;3.85;;
71878;SDS011;59755;43.834;4.364;2022-09-01T15:46:30;6.47;;;4.53;;
71878;SDS011;59755;43.834;4.364;2022-09-01T15:49:00;7.57;;;4.10;;
71878;SDS011;59755;43.834;4.364;2022-09-01T15:53:56;7.00;;;4.70;;
71878;SDS011;59755;43.834;4.364;2022-09-01T15:56:24;6.97;;;4.22;;
71878;SDS011;59755;43.834;4.364;2022-09-01T15:58:50;7.63;;;4.43;;
71878;SDS011;59755;43.834;4.364;2022-09-01T16:01:17;7.63;;;4.28;;
71878;SDS011;59755;43.834;4.364;2022-09-01T16:03:43;7.53;;;4.15;;
71878;SDS011;59755;43.834;4.364;2022-09-01T16:06:10;6.68;;;4.15;;
71878;SDS011;59755;43.834;4.364;2022-09-01T16:08:38;7.60;;;4.65;;
71878;SDS011;59755;43.834;4.364;2022-09-01T16:11:05;7.45;;;4.68;;
71878;SDS011;59755;43.834;4.364;2022-09-01T16:13:34;8.25;;;4.78;;
71878;SDS011;59755;43.834;4.364;2022-09-01T16:21:21;8.30;;;4.68;;
71878;SDS011;59755;43.834;4.364;2022-09-01T16:23:50;6.47;;;4.45;;
71878;SDS011;59755;43.834;4.364;2022-09-01T16:26:17;6.65;;;4.85;;
71878;SDS011;59755;43.834;4.364;2022-09-01T16:28:51;7.85;;;5.18;;